Time;durP1;ratioP1;P1;durP2;ratioP2;P2;SDS_P1;SDS_P2;PMS_P1;PMS_P2;Temp;Humidity;BMP_temperature;BMP_pressure;BME280_temperature;BME280_humidity;BME280_pressure;Samples;Min_cycle;Max_cycle;Signal;HPM_P1;HPM_P2
2022/10/26 00:01:31;;;;;;;;;;;;;;;;;;5024846;28;20180;-33
2022/10/26 00:03:56;;;;;;;;;;;;;;;;;;5020584;28;19917;-33
2022/10/26 00:06:23;;;;;;;;;;;;;;;;;;5020845;28;19917;-33
2022/10/26 00:08:48;;;;;;;;;;;;;;;;;;5025960;28;19949;-33
2022/10/26 00:11:14;;;;;;;;;;;;;;;;;;5022159;28;20007;-33
2022/10/26 00:13:39;;;;;;;;;;;;;;;;;;5023580;28;19925;-33
2022/10/26 00:16:04;;;;;;;;;;;;;;;;;;5018509;28;19913;-33
2022/10/26 00:18:29;;;;;;;;;;;;;;;;;;5022345;28;20314;-33
2022/10/26 00:20:54;;;;;;;;;;;;;;;;;;5024902;28;19930;-33
2022/10/26 00:23:19;;;;;;;;;;;;;;;;;;5023960;28;20401;-33
2022/10/26 00:25:45;;;;;;;;;;;;;;;;;;5021757;28;19929;-33
2022/10/26 00:28:10;;;;;;;;;;;;;;;;;;5018345;28;20018;-33
2022/10/26 00:30:35;;;;;;;;;;;;;;;;;;5025151;28;19925;-33
2022/10/26 00:33:00;;;;;;;;;;;;;;;;;;5023999;28;20405;-33
2022/10/26 00:35:25;;;;;;;;;;;;;;;;;;5025376;28;20155;-33
2022/10/26 00:37:50;;;;;;;;;;;;;;;;;;5020489;28;20159;-33
2022/10/26 00:40:15;;;;;;;;;;;;;;;;;;5022090;28;20342;-33
2022/10/26 00:42:41;;;;;;;;;;;;;;;;;;5023965;28;19924;-33
2022/10/26 00:45:06;;;;;;;;;;;;;;;;;;5025624;28;19919;-33
2022/10/26 00:47:31;;;;;;;;;;;;;;;;;;5022501;28;19928;-33
2022/10/26 00:49:56;;;;;;;;;;;;;;;;;;5015999;28;19917;-33
2022/10/26 00:52:21;;;;;;;;;;;;;;;;;;5021821;28;20379;-33
2022/10/26 00:54:47;;;;;;;;;;;;;;;;;;5022042;28;20352;-33
2022/10/26 00:57:12;;;;;;;;;;;;;;;;;;5024400;28;19913;-33
2022/10/26 00:59:37;;;;;;;;;;;;;;;;;;5020404;28;20371;-33
2022/10/26 01:02:02;;;;;;;;;;;;;;;;;;5020407;28;19913;-33
2022/10/26 01:04:27;;;;;;;;;;;;;;;;;;5024415;28;20299;-33
2022/10/26 01:06:52;;;;;;;;;;;;;;;;;;5020064;28;20223;-33
2022/10/26 01:09:17;;;;;;;;;;;;;;;;;;5023963;28;20657;-33
2022/10/26 01:11:43;;;;;;;;;;;;;;;;;;5019238;28;19967;-33
2022/10/26 01:14:08;;;;;;;;;;;;;;;;;;5024366;28;20298;-33
2022/10/26 01:16:33;;;;;;;;;;;;;;;;;;5023324;28;20014;-33
2022/10/26 01:18:58;;;;;;;;;;;;;;;;;;5024587;28;19921;-33
2022/10/26 01:21:23;;;;;;;;;;;;;;;;;;5022311;28;19935;-33
2022/10/26 01:23:48;;;;;;;;;;;;;;;;;;5018308;28;19975;-33
2022/10/26 01:26:13;;;;;;;;;;;;;;;;;;5023444;28;19920;-32
2022/10/26 01:28:39;;;;;;;;;;;;;;;;;;5022799;28;20022;-32
2022/10/26 01:31:04;;;;;;;;;;;;;;;;;;5025484;28;19920;-32
2022/10/26 01:33:29;;;;;;;;;;;;;;;;;;5019093;28;20513;-33
2022/10/26 01:35:54;;;;;;;;;;;;;;;;;;5022840;28;20026;-33
2022/10/26 01:38:19;;;;;;;;;;;;;;;;;;5019955;28;21154;-32
2022/10/26 01:40:44;;;;;;;;;;;;;;;;;;5022456;28;19931;-33
2022/10/26 01:43:10;;;;;;;;;;;;;;;;;;5018432;28;19959;-33
2022/10/26 01:45:35;;;;;;;;;;;;;;;;;;5017009;28;19917;-33
2022/10/26 01:48:00;;;;;;;;;;;;;;;;;;5019553;28;20547;-33
2022/10/26 01:50:25;;;;;;;;;;;;;;;;;;5022034;28;19920;-33
2022/10/26 01:52:50;;;;;;;;;;;;;;;;;;5022551;28;20367;-33
2022/10/26 01:55:15;;;;;;;;;;;;;;;;;;5016190;28;19913;-33
2022/10/26 01:57:40;;;;;;;;;;;;;;;;;;5019703;28;20330;-33
2022/10/26 02:00:06;;;;;;;;;;;;;;;;;;5027652;28;19917;-33
2022/10/26 02:02:31;;;;;;;;;;;;;;;;;;5026415;28;19913;-33
2022/10/26 02:04:56;;;;;;;;;;;;;;;;;;5027413;28;19917;-33
2022/10/26 02:07:21;;;;;;;;;;;;;;;;;;5015017;28;20299;-33
2022/10/26 02:09:46;;;;;;;;;;;;;;;;;;5025249;28;19913;-33
2022/10/26 02:12:12;;;;;;;;;;;;;;;;;;5025965;28;19913;-32
2022/10/26 02:14:37;;;;;;;;;;;;;;;;;;5025110;28;19979;-33
2022/10/26 02:17:02;;;;;;;;;;;;;;;;;;5027196;28;19996;-33
2022/10/26 02:19:28;;;;;;;;;;;;;;;;;;5022892;28;19971;-32
2022/10/26 02:21:53;;;;;;;;;;;;;;;;;;5021024;28;20402;-32
2022/10/26 02:24:18;;;;;;;;;;;;;;;;;;5026062;28;19917;-32
2022/10/26 02:26:43;;;;;;;;;;;;;;;;;;5023134;28;20068;-33
2022/10/26 02:29:09;;;;;;;;;;;;;;;;;;5019181;28;19940;-32
2022/10/26 02:31:34;;;;;;;;;;;;;;;;;;5021577;28;19923;-32
2022/10/26 02:33:59;;;;;;;;;;;;;;;;;;5026072;28;19921;-32
2022/10/26 02:36:24;;;;;;;;;;;;;;;;;;5024850;28;20397;-32
2022/10/26 02:38:50;;;;;;;;;;;;;;;;;;5022171;28;20062;-32
2022/10/26 02:41:15;;;;;;;;;;;;;;;;;;5025083;28;19982;-32
2022/10/26 02:43:40;;;;;;;;;;;;;;;;;;5025335;28;20040;-32
2022/10/26 02:46:05;;;;;;;;;;;;;;;;;;5021594;28;19963;-32
2022/10/26 02:48:30;;;;;;;;;;;;;;;;;;5026065;28;20342;-32
2022/10/26 02:50:55;;;;;;;;;;;;;;;;;;5026596;28;19928;-33
2022/10/26 02:53:21;;;;;;;;;;;;;;;;;;5024818;28;20310;-33
2022/10/26 02:55:46;;;;;;;;;;;;;;;;;;5026168;28;19920;-33
2022/10/26 02:58:11;;;;;;;;;;;;;;;;;;5021922;28;19982;-33
2022/10/26 03:00:36;;;;;;;;;;;;;;;;;;5025573;28;20327;-32
2022/10/26 03:03:02;;;;;;;;;;;;;;;;;;5018811;28;19917;-32
2022/10/26 03:05:27;;;;;;;;;;;;;;;;;;5025409;28;19917;-32
2022/10/26 03:07:52;;;;;;;;;;;;;;;;;;5027160;28;19921;-32
2022/10/26 03:10:18;;;;;;;;;;;;;;;;;;5022406;28;19913;-32
2022/10/26 03:12:43;;;;;;;;;;;;;;;;;;5019752;28;19925;-32
2022/10/26 03:15:08;;;;;;;;;;;;;;;;;;5018125;28;20283;-32
2022/10/26 03:17:33;;;;;;;;;;;;;;;;;;5023976;28;19927;-32
2022/10/26 03:19:58;;;;;;;;;;;;;;;;;;5026839;28;20319;-32
2022/10/26 03:22:23;;;;;;;;;;;;;;;;;;5025188;28;19913;-32
2022/10/26 03:24:48;;;;;;;;;;;;;;;;;;5018343;28;19939;-32
2022/10/26 03:27:14;;;;;;;;;;;;;;;;;;5023693;28;19945;-32
2022/10/26 03:29:39;;;;;;;;;;;;;;;;;;5024416;28;20280;-32
2022/10/26 03:32:04;;;;;;;;;;;;;;;;;;5019387;28;19913;-32
2022/10/26 03:34:29;;;;;;;;;;;;;;;;;;5023944;28;19921;-32
2022/10/26 03:36:54;;;;;;;;;;;;;;;;;;5026649;28;19917;-32
2022/10/26 03:39:19;;;;;;;;;;;;;;;;;;5021952;28;20264;-32
2022/10/26 03:41:44;;;;;;;;;;;;;;;;;;5021749;28;20043;-32
2022/10/26 03:44:10;;;;;;;;;;;;;;;;;;5024946;28;19913;-33
2022/10/26 03:46:35;;;;;;;;;;;;;;;;;;5024380;28;19971;-33
2022/10/26 03:49:00;;;;;;;;;;;;;;;;;;5025709;28;20015;-33
2022/10/26 03:51:25;;;;;;;;;;;;;;;;;;5018727;28;20234;-33
2022/10/26 03:53:50;;;;;;;;;;;;;;;;;;5024298;28;20374;-32
2022/10/26 03:56:15;;;;;;;;;;;;;;;;;;5025778;28;19939;-33
2022/10/26 03:58:41;;;;;;;;;;;;;;;;;;5024701;28;20309;-33
2022/10/26 04:01:06;;;;;;;;;;;;;;;;;;5024753;28;19920;-33
2022/10/26 04:03:31;;;;;;;;;;;;;;;;;;5019176;28;19955;-32
2022/10/26 04:05:57;;;;;;;;;;;;;;;;;;5018959;28;19964;-33
2022/10/26 04:08:22;;;;;;;;;;;;;;;;;;5024741;28;19913;-32
2022/10/26 04:10:47;;;;;;;;;;;;;;;;;;5025491;28;19921;-32
2022/10/26 04:13:12;;;;;;;;;;;;;;;;;;5022178;28;19921;-32
2022/10/26 04:15:37;;;;;;;;;;;;;;;;;;5020289;28;19936;-33
2022/10/26 04:18:02;;;;;;;;;;;;;;;;;;5026468;28;19921;-32
2022/10/26 04:20:27;;;;;;;;;;;;;;;;;;5021577;28;20306;-33
2022/10/26 04:22:53;;;;;;;;;;;;;;;;;;5023030;28;19927;-32
2022/10/26 04:25:18;;;;;;;;;;;;;;;;;;5018377;28;20374;-33
2022/10/26 04:27:43;;;;;;;;;;;;;;;;;;5023175;28;19913;-33
2022/10/26 04:30:08;;;;;;;;;;;;;;;;;;5024043;28;19913;-32
2022/10/26 04:32:33;;;;;;;;;;;;;;;;;;5023064;28;20498;-32
2022/10/26 04:34:59;;;;;;;;;;;;;;;;;;5023742;28;19928;-32
2022/10/26 04:37:24;;;;;;;;;;;;;;;;;;5018897;28;19943;-32
2022/10/26 04:39:49;;;;;;;;;;;;;;;;;;5024011;28;19917;-32
2022/10/26 04:42:14;;;;;;;;;;;;;;;;;;5022311;28;19987;-32
2022/10/26 04:44:39;;;;;;;;;;;;;;;;;;5023034;28;19927;-32
2022/10/26 04:47:04;;;;;;;;;;;;;;;;;;5021124;28;20329;-33
2022/10/26 04:49:30;;;;;;;;;;;;;;;;;;5023311;28;19952;-33
2022/10/26 04:51:55;;;;;;;;;;;;;;;;;;5023295;28;19921;-33
2022/10/26 04:54:20;;;;;;;;;;;;;;;;;;5021958;28;20274;-33
2022/10/26 04:56:45;;;;;;;;;;;;;;;;;;5021651;28;19917;-33
2022/10/26 04:59:10;;;;;;;;;;;;;;;;;;5021978;28;20287;-33
2022/10/26 05:01:35;;;;;;;;;;;;;;;;;;5017754;28;19917;-33
2022/10/26 05:04:00;;;;;;;;;;;;;;;;;;5023357;28;19921;-32
2022/10/26 05:06:26;;;;;;;;;;;;;;;;;;5022391;28;19913;-32
2022/10/26 05:08:51;;;;;;;;;;;;;;;;;;5021565;28;20160;-33
2022/10/26 05:11:16;;;;;;;;;;;;;;;;;;5023158;28;19917;-33
2022/10/26 05:13:41;;;;;;;;;;;;;;;;;;5022209;28;20379;-32
2022/10/26 05:16:06;;;;;;;;;;;;;;;;;;5026269;28;19917;-32
2022/10/26 05:18:31;;;;;;;;;;;;;;;;;;5027012;28;19917;-32
2022/10/26 05:20:57;;;;;;;;;;;;;;;;;;5021994;28;19931;-32
2022/10/26 05:23:22;;;;;;;;;;;;;;;;;;5024433;28;19913;-32
2022/10/26 05:25:47;;;;;;;;;;;;;;;;;;5021447;28;19917;-32
2022/10/26 05:28:12;;;;;;;;;;;;;;;;;;5022277;28;19913;-32
2022/10/26 05:30:37;;;;;;;;;;;;;;;;;;5025456;28;19913;-32
2022/10/26 05:33:02;;;;;;;;;;;;;;;;;;5022972;28;19921;-32
2022/10/26 05:35:28;;;;;;;;;;;;;;;;;;5024091;28;19913;-32
2022/10/26 05:37:53;;;;;;;;;;;;;;;;;;5022604;28;19925;-32
2022/10/26 05:40:18;;;;;;;;;;;;;;;;;;5022802;28;19920;-32
2022/10/26 05:42:43;;;;;;;;;;;;;;;;;;5025212;28;20147;-32
2022/10/26 05:45:08;;;;;;;;;;;;;;;;;;5026060;28;19914;-32
2022/10/26 05:47:33;;;;;;;;;;;;;;;;;;5025557;28;19996;-32
2022/10/26 05:49:59;;;;;;;;;;;;;;;;;;5026116;28;19944;-32
2022/10/26 05:52:24;;;;;;;;;;;;;;;;;;5025001;28;19920;-32
2022/10/26 05:54:49;;;;;;;;;;;;;;;;;;5025373;28;19917;-32
2022/10/26 05:57:14;;;;;;;;;;;;;;;;;;5025386;28;20055;-32
2022/10/26 06:02:08;;;;;;;;;;;;;;;;;;5045298;28;20373;-34
2022/10/26 06:04:34;;;;;;;;;;;;;;;;;;5045540;28;19992;-34
2022/10/26 06:07:00;;;;;;;;;;;;;;;;;;5045470;28;19917;-34
2022/10/26 06:09:25;;;;;;;;;;;;;;;;;;5043987;28;19920;-34
2022/10/26 06:11:50;;;;;;;;;;;;;;;;;;5041608;28;20448;-34
2022/10/26 06:14:15;;;;;;;;;;;;;;;;;;5044164;28;20290;-34
2022/10/26 06:16:40;;;;;;;;;;;;;;;;;;5045007;28;20207;-33
2022/10/26 06:19:05;;;;;;;;;;;;;;;;;;5044702;28;19925;-34
2022/10/26 06:21:31;;;;;;;;;;;;;;;;;;5044452;28;19920;-34
2022/10/26 06:23:56;;;;;;;;;;;;;;;;;;5044538;28;20106;-34
2022/10/26 06:26:21;;;;;;;;;;;;;;;;;;5044088;28;19924;-34
2022/10/26 06:28:46;;;;;;;;;;;;;;;;;;5045051;28;19967;-34
2022/10/26 06:31:11;;;;;;;;;;;;;;;;;;5044492;28;20279;-34
2022/10/26 06:33:37;;;;;;;;;;;;;;;;;;5042760;28;19982;-34
2022/10/26 06:36:02;;;;;;;;;;;;;;;;;;5044338;28;19912;-34
2022/10/26 06:38:27;;;;;;;;;;;;;;;;;;5043000;28;19919;-34
2022/10/26 06:40:52;;;;;;;;;;;;;;;;;;5042708;28;19917;-34
2022/10/26 06:43:17;;;;;;;;;;;;;;;;;;5044229;28;19913;-34
2022/10/26 06:45:42;;;;;;;;;;;;;;;;;;5045549;28;19913;-34
2022/10/26 06:48:08;;;;;;;;;;;;;;;;;;5047572;28;20003;-34
2022/10/26 06:50:33;;;;;;;;;;;;;;;;;;5047185;28;19936;-34
2022/10/26 06:52:58;;;;;;;;;;;;;;;;;;5046990;28;19924;-34
2022/10/26 06:55:25;;;;;;;;;;;;;;;;;;5047438;28;19920;-34
2022/10/26 06:57:50;;;;;;;;;;;;;;;;;;5047358;28;19923;-33
2022/10/26 07:00:18;;;;;;;;;;;;;;;;;;5047110;28;20228;-33
2022/10/26 07:02:44;;;;;;;;;;;;;;;;;;5047983;28;19913;-34
2022/10/26 07:05:11;;;;;;;;;;;;;;;;;;5047058;28;19955;-34
2022/10/26 07:07:36;;;;;;;;;;;;;;;;;;5046995;28;19921;-34
2022/10/26 07:10:02;;;;;;;;;;;;;;;;;;5045371;28;19916;-34
2022/10/26 07:12:27;;;;;;;;;;;;;;;;;;5047438;28;19939;-34
2022/10/26 07:14:52;;;;;;;;;;;;;;;;;;5047036;28;20285;-34
2022/10/26 07:17:17;;;;;;;;;;;;;;;;;;5047881;28;19913;-33
2022/10/26 07:19:43;;;;;;;;;;;;;;;;;;5047493;28;19916;-34
2022/10/26 07:22:08;;;;;;;;;;;;;;;;;;5047143;28;20000;-34
2022/10/26 07:24:33;;;;;;;;;;;;;;;;;;5046418;28;19931;-33
2022/10/26 07:26:59;;;;;;;;;;;;;;;;;;5046864;28;19913;-34
2022/10/26 07:29:24;;;;;;;;;;;;;;;;;;5046867;28;19913;-34
2022/10/26 07:31:49;;;;;;;;;;;;;;;;;;5046933;28;19920;-34
2022/10/26 07:34:14;;;;;;;;;;;;;;;;;;5046931;28;20000;-34
2022/10/26 07:36:39;;;;;;;;;;;;;;;;;;5046302;28;19926;-34
2022/10/26 07:39:04;;;;;;;;;;;;;;;;;;5046810;28;19956;-34
2022/10/26 07:41:30;;;;;;;;;;;;;;;;;;5046415;28;19920;-33
2022/10/26 07:43:55;;;;;;;;;;;;;;;;;;5046319;28;19966;-33
2022/10/26 07:46:20;;;;;;;;;;;;;;;;;;5046797;28;20432;-34
2022/10/26 07:48:45;;;;;;;;;;;;;;;;;;5046297;28;19919;-34
2022/10/26 07:51:10;;;;;;;;;;;;;;;;;;5046206;28;19921;-34
2022/10/26 07:53:35;;;;;;;;;;;;;;;;;;5045526;28;19925;-33
2022/10/26 07:56:01;;;;;;;;;;;;;;;;;;5045845;28;20122;-34
2022/10/26 07:58:27;;;;;;;;;;;;;;;;;;5046527;28;19963;-33
2022/10/26 08:00:52;;;;;;;;;;;;;;;;;;5045641;28;19956;-34
2022/10/26 08:03:17;;;;;;;;;;;;;;;;;;5046257;28;20353;-33
2022/10/26 08:05:42;;;;;;;;;;;;;;;;;;5046439;28;20441;-34
2022/10/26 08:08:07;;;;;;;;;;;;;;;;;;5046100;28;20430;-33
2022/10/26 08:10:33;;;;;;;;;;;;;;;;;;5044930;28;19916;-34
2022/10/26 08:12:58;;;;;;;;;;;;;;;;;;5045605;28;19917;-34
2022/10/26 08:15:23;;;;;;;;;;;;;;;;;;5046392;28;19919;-34
2022/10/26 08:17:48;;;;;;;;;;;;;;;;;;5046196;28;20325;-34
2022/10/26 08:20:14;;;;;;;;;;;;;;;;;;5045654;28;19917;-34
2022/10/26 08:22:39;;;;;;;;;;;;;;;;;;5045847;28;20452;-34
2022/10/26 08:25:04;;;;;;;;;;;;;;;;;;5045581;28;19913;-34
2022/10/26 08:27:29;;;;;;;;;;;;;;;;;;5042370;28;19920;-34
2022/10/26 08:29:54;;;;;;;;;;;;;;;;;;5044996;28;20262;-34
2022/10/26 08:32:19;;;;;;;;;;;;;;;;;;5045901;28;19983;-34
2022/10/26 08:34:44;;;;;;;;;;;;;;;;;;5045447;28;19913;-34
2022/10/26 08:37:10;;;;;;;;;;;;;;;;;;5044464;28;20004;-34
2022/10/26 08:39:35;;;;;;;;;;;;;;;;;;5045788;28;19916;-34
2022/10/26 08:42:00;;;;;;;;;;;;;;;;;;5043512;28;20332;-34
2022/10/26 08:44:25;;;;;;;;;;;;;;;;;;5045167;28;20263;-34
2022/10/26 08:46:52;;;;;;;;;;;;;;;;;;5044995;28;19920;-34
2022/10/26 08:49:18;;;;;;;;;;;;;;;;;;5045135;28;19999;-34
2022/10/26 08:51:43;;;;;;;;;;;;;;;;;;5046002;28;20020;-34
2022/10/26 08:54:08;;;;;;;;;;;;;;;;;;5044143;28;19920;-33
2022/10/26 08:56:33;;;;;;;;;;;;;;;;;;5046207;28;19913;-33
2022/10/26 08:58:58;;;;;;;;;;;;;;;;;;5039063;28;20344;-34
2022/10/26 09:01:24;;;;;;;;;;;;;;;;;;5044283;28;20317;-34
2022/10/26 09:03:49;;;;;;;;;;;;;;;;;;5042594;28;19983;-33
2022/10/26 09:06:14;;;;;;;;;;;;;;;;;;5044348;28;19920;-33
2022/10/26 09:08:39;;;;;;;;;;;;;;;;;;5044417;28;19913;-34
2022/10/26 09:11:04;;;;;;;;;;;;;;;;;;5041858;28;19955;-33
2022/10/26 09:13:29;;;;;;;;;;;;;;;;;;5042506;28;19970;-33
2022/10/26 09:15:54;;;;;;;;;;;;;;;;;;5041154;28;20596;-33
2022/10/26 09:18:20;;;;;;;;;;;;;;;;;;5046285;28;19916;-33
2022/10/26 09:20:45;;;;;;;;;;;;;;;;;;5044895;28;20402;-33
2022/10/26 09:23:10;;;;;;;;;;;;;;;;;;5042072;28;21262;-33
2022/10/26 09:25:35;;;;;;;;;;;;;;;;;;5043967;28;20121;-33
2022/10/26 09:28:00;;;;;;;;;;;;;;;;;;5044636;28;20400;-33
2022/10/26 09:30:25;;;;;;;;;;;;;;;;;;5044938;28;19908;-33
2022/10/26 09:32:50;;;;;;;;;;;;;;;;;;5044035;28;20228;-34
2022/10/26 09:35:16;;;;;;;;;;;;;;;;;;5045892;28;20037;-34
2022/10/26 09:37:43;;;;;;;;;;;;;;;;;;5045647;28;19916;-34
2022/10/26 09:40:09;;;;;;;;;;;;;;;;;;5044600;28;19913;-33
2022/10/26 09:42:34;;;;;;;;;;;;;;;;;;5045429;28;19987;-34
2022/10/26 09:44:59;;;;;;;;;;;;;;;;;;5045398;28;19917;-34
2022/10/26 09:47:24;;;;;;;;;;;;;;;;;;5045526;28;19916;-33
2022/10/26 09:49:49;;;;;;;;;;;;;;;;;;5045126;28;19913;-34
2022/10/26 09:52:15;;;;;;;;;;;;;;;;;;5044430;28;19913;-34
2022/10/26 09:54:40;;;;;;;;;;;;;;;;;;5044757;28;20389;-34
2022/10/26 09:57:05;;;;;;;;;;;;;;;;;;5043715;28;19912;-34
2022/10/26 09:59:32;;;;;;;;;;;;;;;;;;5045475;28;19920;-34
2022/10/26 10:01:57;;;;;;;;;;;;;;;;;;5044977;28;20292;-34
2022/10/26 10:04:22;;;;;;;;;;;;;;;;;;5044327;28;19917;-34
2022/10/26 10:06:48;;;;;;;;;;;;;;;;;;5045383;28;19912;-34
2022/10/26 10:09:13;;;;;;;;;;;;;;;;;;5044411;28;19948;-34
2022/10/26 10:11:39;;;;;;;;;;;;;;;;;;5044007;28;19912;-34
2022/10/26 10:14:04;;;;;;;;;;;;;;;;;;5041891;28;19975;-34
2022/10/26 10:16:29;;;;;;;;;;;;;;;;;;5045316;28;19944;-33
2022/10/26 10:18:54;;;;;;;;;;;;;;;;;;5043783;28;19916;-34
2022/10/26 10:21:19;;;;;;;;;;;;;;;;;;5048000;28;19930;-34
2022/10/26 10:23:44;;;;;;;;;;;;;;;;;;5048169;28;20301;-34
2022/10/26 10:26:10;;;;;;;;;;;;;;;;;;5047648;28;19970;-34
2022/10/26 10:28:35;;;;;;;;;;;;;;;;;;5048001;28;19991;-34
2022/10/26 10:31:00;;;;;;;;;;;;;;;;;;5048047;28;20374;-34
2022/10/26 10:33:25;;;;;;;;;;;;;;;;;;5048076;28;19916;-34
2022/10/26 10:35:51;;;;;;;;;;;;;;;;;;5048338;28;20495;-34
2022/10/26 10:38:16;;;;;;;;;;;;;;;;;;5047647;28;19924;-34
2022/10/26 10:40:41;;;;;;;;;;;;;;;;;;5047990;28;19917;-34
2022/10/26 10:43:06;;;;;;;;;;;;;;;;;;5047012;28;19912;-34
2022/10/26 10:45:31;;;;;;;;;;;;;;;;;;5048566;28;19913;-34
2022/10/26 10:47:56;;;;;;;;;;;;;;;;;;5047661;28;19982;-34
2022/10/26 10:50:21;;;;;;;;;;;;;;;;;;5045253;28;19927;-34
2022/10/26 10:52:47;;;;;;;;;;;;;;;;;;5047540;28;19939;-35
2022/10/26 10:55:12;;;;;;;;;;;;;;;;;;5047268;28;19924;-34
2022/10/26 10:57:37;;;;;;;;;;;;;;;;;;5046747;28;20333;-34
2022/10/26 11:00:02;;;;;;;;;;;;;;;;;;5046677;28;19913;-34
2022/10/26 11:02:27;;;;;;;;;;;;;;;;;;5047580;28;19924;-34
2022/10/26 11:04:52;;;;;;;;;;;;;;;;;;5047061;28;19916;-34
2022/10/26 11:07:18;;;;;;;;;;;;;;;;;;5046721;28;19913;-34
2022/10/26 11:09:43;;;;;;;;;;;;;;;;;;5045404;28;19949;-34
2022/10/26 11:12:08;;;;;;;;;;;;;;;;;;5045928;28;20416;-34
2022/10/26 11:14:34;;;;;;;;;;;;;;;;;;5045636;28;19916;-34
2022/10/26 11:16:59;;;;;;;;;;;;;;;;;;5047268;28;19923;-34
2022/10/26 11:19:24;;;;;;;;;;;;;;;;;;5046676;28;19923;-34
2022/10/26 11:21:49;;;;;;;;;;;;;;;;;;5047686;28;19984;-35
2022/10/26 11:24:14;;;;;;;;;;;;;;;;;;5046041;28;19964;-35
2022/10/26 11:26:39;;;;;;;;;;;;;;;;;;5046975;28;19917;-35
2022/10/26 11:29:05;;;;;;;;;;;;;;;;;;5042802;28;19917;-35
2022/10/26 11:31:30;;;;;;;;;;;;;;;;;;5043123;28;20389;-35
2022/10/26 11:33:55;;;;;;;;;;;;;;;;;;5044482;28;19917;-35
2022/10/26 11:36:20;;;;;;;;;;;;;;;;;;5045105;28;20461;-34
2022/10/26 11:38:46;;;;;;;;;;;;;;;;;;5044497;28;19917;-34
2022/10/26 11:41:11;;;;;;;;;;;;;;;;;;5044049;28;21691;-35
2022/10/26 11:43:36;;;;;;;;;;;;;;;;;;5044322;28;19948;-35
2022/10/26 11:46:01;;;;;;;;;;;;;;;;;;5044746;28;19924;-35
2022/10/26 11:48:26;;;;;;;;;;;;;;;;;;5044359;28;19923;-35
2022/10/26 11:50:52;;;;;;;;;;;;;;;;;;5042992;28;19921;-35
2022/10/26 11:53:17;;;;;;;;;;;;;;;;;;5044114;28;19920;-35
2022/10/26 11:55:42;;;;;;;;;;;;;;;;;;5045132;28;19935;-35
2022/10/26 11:58:07;;;;;;;;;;;;;;;;;;5044545;28;19917;-35
2022/10/26 12:00:33;;;;;;;;;;;;;;;;;;5044787;28;22203;-35
2022/10/26 12:02:58;;;;;;;;;;;;;;;;;;5044239;28;19940;-35
2022/10/26 12:05:23;;;;;;;;;;;;;;;;;;5043781;28;19924;-35
2022/10/26 12:07:48;;;;;;;;;;;;;;;;;;5044365;28;19916;-35
2022/10/26 12:10:13;;;;;;;;;;;;;;;;;;5041953;28;19920;-35
2022/10/26 12:12:39;;;;;;;;;;;;;;;;;;5043963;28;20283;-35
2022/10/26 12:15:04;;;;;;;;;;;;;;;;;;5043758;28;19982;-35
2022/10/26 12:17:29;;;;;;;;;;;;;;;;;;5044529;28;20370;-35
2022/10/26 12:19:54;;;;;;;;;;;;;;;;;;5042023;28;19945;-34
2022/10/26 12:22:19;;;;;;;;;;;;;;;;;;5043678;28;20390;-34
2022/10/26 12:24:44;;;;;;;;;;;;;;;;;;5043694;28;19967;-34
2022/10/26 12:27:10;;;;;;;;;;;;;;;;;;5043568;28;20288;-34
2022/10/26 12:29:35;;;;;;;;;;;;;;;;;;5043697;28;19966;-34
2022/10/26 12:32:01;;;;;;;;;;;;;;;;;;5043919;28;20274;-34
2022/10/26 12:34:26;;;;;;;;;;;;;;;;;;5043129;28;19917;-34
2022/10/26 12:36:51;;;;;;;;;;;;;;;;;;5043582;28;19970;-34
2022/10/26 12:39:16;;;;;;;;;;;;;;;;;;5043373;28;19944;-34
2022/10/26 12:41:41;;;;;;;;;;;;;;;;;;5043044;28;20402;-34
2022/10/26 12:44:06;;;;;;;;;;;;;;;;;;5042869;28;19913;-35
2022/10/26 12:46:32;;;;;;;;;;;;;;;;;;5043493;28;19921;-35
2022/10/26 12:48:58;;;;;;;;;;;;;;;;;;5043101;28;20278;-35
2022/10/26 12:51:23;;;;;;;;;;;;;;;;;;5040136;28;19921;-35
2022/10/26 12:53:49;;;;;;;;;;;;;;;;;;5042657;28;19940;-35
2022/10/26 12:56:14;;;;;;;;;;;;;;;;;;5042602;28;20451;-35
2022/10/26 12:58:39;;;;;;;;;;;;;;;;;;5043146;28;19967;-35
2022/10/26 13:01:05;;;;;;;;;;;;;;;;;;5043447;28;19927;-35
2022/10/26 13:03:30;;;;;;;;;;;;;;;;;;5042949;28;19917;-35
2022/10/26 13:05:55;;;;;;;;;;;;;;;;;;5047100;28;20011;-35
2022/10/26 13:08:20;;;;;;;;;;;;;;;;;;5045157;28;20432;-35
2022/10/26 13:10:46;;;;;;;;;;;;;;;;;;5047114;28;20124;-35
2022/10/26 13:13:11;;;;;;;;;;;;;;;;;;5047526;28;20622;-34
2022/10/26 13:15:36;;;;;;;;;;;;;;;;;;5047132;28;20432;-34
2022/10/26 13:18:02;;;;;;;;;;;;;;;;;;5047522;28;19921;-34
2022/10/26 13:20:27;;;;;;;;;;;;;;;;;;5046343;28;19913;-35
2022/10/26 13:22:52;;;;;;;;;;;;;;;;;;5048084;28;19917;-35
2022/10/26 13:25:17;;;;;;;;;;;;;;;;;;5047403;28;19912;-35
2022/10/26 13:27:42;;;;;;;;;;;;;;;;;;5048300;28;20144;-35
2022/10/26 13:30:08;;;;;;;;;;;;;;;;;;5048076;28;19982;-35
2022/10/26 13:32:33;;;;;;;;;;;;;;;;;;5047752;28;19925;-34
2022/10/26 13:34:58;;;;;;;;;;;;;;;;;;5048304;28;19924;-34
2022/10/26 13:37:23;;;;;;;;;;;;;;;;;;5047000;28;19976;-35
2022/10/26 13:39:48;;;;;;;;;;;;;;;;;;5046633;28;19928;-35
2022/10/26 13:42:14;;;;;;;;;;;;;;;;;;5042145;28;20499;-35
2022/10/26 13:44:39;;;;;;;;;;;;;;;;;;5042150;28;19917;-35
2022/10/26 13:47:04;;;;;;;;;;;;;;;;;;5042246;28;19913;-35
2022/10/26 13:49:29;;;;;;;;;;;;;;;;;;5040327;28;19917;-35
2022/10/26 13:51:54;;;;;;;;;;;;;;;;;;5042184;28;19924;-35
2022/10/26 13:54:20;;;;;;;;;;;;;;;;;;5042621;28;20589;-35
2022/10/26 13:56:45;;;;;;;;;;;;;;;;;;5046639;28;20221;-35
2022/10/26 13:59:10;;;;;;;;;;;;;;;;;;5045718;28;19920;-35
2022/10/26 14:01:35;;;;;;;;;;;;;;;;;;5046186;28;19927;-35
2022/10/26 14:04:00;;;;;;;;;;;;;;;;;;5046035;28;19917;-35
2022/10/26 14:06:26;;;;;;;;;;;;;;;;;;5046219;28;19917;-35
2022/10/26 14:08:51;;;;;;;;;;;;;;;;;;5046280;28;19917;-35
2022/10/26 14:11:16;;;;;;;;;;;;;;;;;;5043547;28;19916;-35
2022/10/26 14:13:41;;;;;;;;;;;;;;;;;;5045777;28;19920;-35
2022/10/26 14:16:06;;;;;;;;;;;;;;;;;;5046046;28;19916;-35
2022/10/26 14:18:31;;;;;;;;;;;;;;;;;;5046655;28;19955;-35
2022/10/26 14:20:57;;;;;;;;;;;;;;;;;;5045060;28;19920;-35
2022/10/26 14:23:22;;;;;;;;;;;;;;;;;;5046158;28;20072;-35
2022/10/26 14:25:47;;;;;;;;;;;;;;;;;;5046363;28;19917;-35
2022/10/26 14:28:12;;;;;;;;;;;;;;;;;;5045626;28;20054;-35
2022/10/26 14:30:37;;;;;;;;;;;;;;;;;;5046064;28;20277;-35
2022/10/26 14:33:02;;;;;;;;;;;;;;;;;;5045773;28;19947;-35
2022/10/26 14:35:27;;;;;;;;;;;;;;;;;;5046312;28;19944;-35
2022/10/26 14:37:53;;;;;;;;;;;;;;;;;;5046004;28;19939;-35
2022/10/26 14:40:18;;;;;;;;;;;;;;;;;;5045991;28;19969;-35
2022/10/26 14:42:44;;;;;;;;;;;;;;;;;;5046212;28;19916;-35
2022/10/26 14:45:09;;;;;;;;;;;;;;;;;;5044966;28;19920;-35
2022/10/26 14:47:35;;;;;;;;;;;;;;;;;;5045640;28;19916;-35
2022/10/26 14:50:00;;;;;;;;;;;;;;;;;;5043599;28;20342;-35
2022/10/26 14:52:25;;;;;;;;;;;;;;;;;;5045649;28;19917;-35
2022/10/26 14:54:50;;;;;;;;;;;;;;;;;;5045445;28;20342;-35
2022/10/26 14:57:15;;;;;;;;;;;;;;;;;;5044723;28;19912;-35
2022/10/26 14:59:41;;;;;;;;;;;;;;;;;;5045294;28;20378;-35
2022/10/26 15:02:06;;;;;;;;;;;;;;;;;;5045195;28;20343;-35
2022/10/26 15:04:31;;;;;;;;;;;;;;;;;;5045350;28;19920;-35
2022/10/26 15:06:56;;;;;;;;;;;;;;;;;;5044022;28;20031;-35
2022/10/26 15:09:21;;;;;;;;;;;;;;;;;;5044419;28;20417;-35
2022/10/26 15:11:47;;;;;;;;;;;;;;;;;;5044431;28;19917;-35
2022/10/26 15:14:12;;;;;;;;;;;;;;;;;;5044188;28;20191;-35
2022/10/26 15:16:39;;;;;;;;;;;;;;;;;;5045034;28;20393;-35
2022/10/26 15:19:04;;;;;;;;;;;;;;;;;;5041416;28;19916;-35
2022/10/26 15:21:29;;;;;;;;;;;;;;;;;;5045885;28;19917;-35
2022/10/26 15:23:55;;;;;;;;;;;;;;;;;;5045057;28;19917;-35
2022/10/26 15:26:20;;;;;;;;;;;;;;;;;;5045122;28;19970;-35
2022/10/26 15:28:48;;;;;;;;;;;;;;;;;;5045122;28;19942;-35
2022/10/26 15:31:13;;;;;;;;;;;;;;;;;;5044915;28;19920;-35
2022/10/26 15:33:38;;;;;;;;;;;;;;;;;;5044515;28;20432;-35
2022/10/26 15:36:03;;;;;;;;;;;;;;;;;;5045331;28;19951;-35
2022/10/26 15:38:29;;;;;;;;;;;;;;;;;;5046817;28;19917;-35
2022/10/26 15:40:54;;;;;;;;;;;;;;;;;;5044520;28;20390;-35
2022/10/26 15:43:19;;;;;;;;;;;;;;;;;;5043811;28;19960;-35
2022/10/26 15:45:46;;;;;;;;;;;;;;;;;;5045177;28;19917;-35
2022/10/26 15:48:11;;;;;;;;;;;;;;;;;;5044560;28;20030;-35
2022/10/26 15:50:37;;;;;;;;;;;;;;;;;;5042243;28;19947;-35
2022/10/26 15:53:02;;;;;;;;;;;;;;;;;;5044636;28;19956;-35
2022/10/26 15:55:27;;;;;;;;;;;;;;;;;;5043868;28;19916;-35
2022/10/26 15:57:52;;;;;;;;;;;;;;;;;;5044563;28;19921;-35
2022/10/26 16:00:17;;;;;;;;;;;;;;;;;;5043939;28;19917;-35
2022/10/26 16:02:43;;;;;;;;;;;;;;;;;;5040637;28;20155;-35
2022/10/26 16:05:08;;;;;;;;;;;;;;;;;;5041451;28;20008;-35
2022/10/26 16:07:33;;;;;;;;;;;;;;;;;;5043576;28;19933;-35
2022/10/26 16:09:58;;;;;;;;;;;;;;;;;;5041813;28;19924;-35
2022/10/26 16:12:24;;;;;;;;;;;;;;;;;;5043785;28;19917;-35
2022/10/26 16:14:49;;;;;;;;;;;;;;;;;;5039915;28;20027;-35
2022/10/26 16:17:14;;;;;;;;;;;;;;;;;;5033694;28;19916;-35
2022/10/26 16:19:39;;;;;;;;;;;;;;;;;;5039419;28;19912;-35
2022/10/26 16:22:04;;;;;;;;;;;;;;;;;;5036034;28;19970;-35
2022/10/26 16:24:29;;;;;;;;;;;;;;;;;;5042272;28;20011;-35
2022/10/26 16:26:55;;;;;;;;;;;;;;;;;;5036782;28;20027;-34
2022/10/26 16:29:20;;;;;;;;;;;;;;;;;;5039846;28;20007;-35
2022/10/26 16:31:45;;;;;;;;;;;;;;;;;;5041528;28;19916;-35
2022/10/26 16:34:10;;;;;;;;;;;;;;;;;;5038789;28;19917;-35